Time;durP1;ratioP1;P1;durP2;ratioP2;P2;SDS_P1;SDS_P2;PMS_P1;PMS_P2;Temp;Humidity;BMP_temperature;BMP_pressure;BME280_temperature;BME280_humidity;BME280_pressure;Samples;Min_cycle;Max_cycle;Signal;HPM_P1;HPM_P2
2022/09/20 00:00:44;;;;;;;6.18;2.83;;;;;;;;;;4967659;28;20100;-70
2022/09/20 00:03:10;;;;;;;6.20;2.75;;;;;;;;;;4934908;28;20472;-70
2022/09/20 00:05:37;;;;;;;5.88;2.50;;;;;;;;;;4969186;28;20442;-70
2022/09/20 00:08:03;;;;;;;5.32;2.80;;;;;;;;;;4968973;28;20465;-70
2022/09/20 00:10:30;;;;;;;5.28;2.60;;;;;;;;;;4953418;28;20456;-71
2022/09/20 00:12:56;;;;;;;7.95;2.97;;;;;;;;;;4953500;28;20348;-71
2022/09/20 00:15:21;;;;;;;4.40;2.47;;;;;;;;;;4972609;28;20029;-70
2022/09/20 00:17:46;;;;;;;4.72;3.00;;;;;;;;;;4970893;28;20431;-70
2022/09/20 00:20:12;;;;;;;5.25;2.58;;;;;;;;;;4971246;28;20507;-70
2022/09/20 00:22:37;;;;;;;5.70;2.92;;;;;;;;;;4953096;28;20448;-70
2022/09/20 00:25:03;;;;;;;5.43;2.67;;;;;;;;;;4953570;28;20340;-71
2022/09/20 00:27:28;;;;;;;6.53;3.25;;;;;;;;;;4952924;28;20436;-70
2022/09/20 00:29:54;;;;;;;4.28;2.60;;;;;;;;;;4971875;28;20075;-70
2022/09/20 00:32:19;;;;;;;4.90;3.00;;;;;;;;;;4971015;28;20347;-70
2022/09/20 00:37:28;;;;;;;5.80;2.60;;;;;;;;;;4970587;28;20435;-69
2022/09/20 00:39:53;;;;;;;5.82;2.88;;;;;;;;;;4971283;28;20340;-70
2022/09/20 00:42:26;;;;;;;4.65;2.40;;;;;;;;;;4952790;28;20518;-70
2022/09/20 00:45:02;;;;;;;4.88;2.45;;;;;;;;;;4953001;28;20501;-70
2022/09/20 00:47:43;;;;;;;7.00;3.08;;;;;;;;;;4971892;28;20103;-71
2022/09/20 00:50:44;;;;;;;4.65;2.83;;;;;;;;;;4970340;28;20092;-70
2022/09/20 00:53:17;;;;;;;4.90;2.50;;;;;;;;;;4952584;28;20208;-71
2022/09/20 00:55:47;;;;;;;7.15;3.15;;;;;;;;;;4952462;28;20390;-70
2022/09/20 00:58:13;;;;;;;5.60;2.72;;;;;;;;;;4952406;28;20468;-70
2022/09/20 01:00:39;;;;;;;4.82;2.30;;;;;;;;;;4952306;28;20359;-70
2022/09/20 01:03:07;;;;;;;3.97;2.20;;;;;;;;;;4964622;28;20347;-70
2022/09/20 01:05:32;;;;;;;5.40;2.72;;;;;;;;;;4952526;28;20099;-69
2022/09/20 01:07:57;;;;;;;4.10;2.13;;;;;;;;;;4952479;28;20448;-70
2022/09/20 01:10:23;;;;;;;4.28;2.30;;;;;;;;;;4970284;28;20060;-71
2022/09/20 01:12:50;;;;;;;4.85;2.10;;;;;;;;;;4952247;28;20388;-71
2022/09/20 01:15:17;;;;;;;5.78;2.63;;;;;;;;;;4952206;28;20048;-70
2022/09/20 01:17:47;;;;;;;4.50;2.60;;;;;;;;;;4952369;28;20057;-70
2022/09/20 01:20:28;;;;;;;3.70;2.42;;;;;;;;;;4951608;28;20481;-70
2022/09/20 01:23:06;;;;;;;5.40;2.53;;;;;;;;;;4952439;28;20395;-71
2022/09/20 01:26:02;;;;;;;5.28;2.38;;;;;;;;;;4952401;28;20114;-70
2022/09/20 01:28:28;;;;;;;4.05;2.35;;;;;;;;;;4952137;28;20367;-70
2022/09/20 01:31:06;;;;;;;6.22;3.08;;;;;;;;;;4970602;28;20340;-70
2022/09/20 01:33:57;;;;;;;4.28;2.38;;;;;;;;;;4951957;28;20356;-71
2022/09/20 01:36:49;;;;;;;3.45;1.85;;;;;;;;;;4951926;28;20403;-70
2022/09/20 01:39:36;;;;;;;4.97;2.15;;;;;;;;;;4932496;28;20439;-70
2022/09/20 01:42:05;;;;;;;3.90;2.15;;;;;;;;;;4970932;28;20428;-69
2022/09/20 01:44:36;;;;;;;;;;;;;;;;;;4951982;28;20447;-70
2022/09/20 01:47:15;;;;;;;3.30;1.90;;;;;;;;;;4951951;28;20031;-70
2022/09/20 01:49:43;;;;;;;;;;;;;;;;;;4951819;28;20025;-70
2022/09/20 01:52:11;;;;;;;3.58;1.92;;;;;;;;;;4969438;28;20335;-70
2022/09/20 01:55:01;;;;;;;4.40;2.05;;;;;;;;;;4970764;28;20407;-70
2022/09/20 01:57:55;;;;;;;4.00;2.00;;;;;;;;;;4969310;28;20091;-70
2022/09/20 02:00:42;;;;;;;7.00;2.50;;;;;;;;;;4970223;28;20068;-69
2022/09/20 02:03:11;;;;;;;3.53;2.15;;;;;;;;;;4205406;28;10000695;-71
2022/09/20 02:06:08;;;;;;;3.33;1.85;;;;;;;;;;4351454;28;10001194;-70
2022/09/20 02:09:03;;;;;;;4.97;2.30;;;;;;;;;;4968993;28;20444;-70
2022/09/20 02:11:44;;;;;;;3.05;1.65;;;;;;;;;;4969888;28;20037;-69
2022/09/20 02:14:28;;;;;;;4.93;2.38;;;;;;;;;;4969255;28;20034;-70
2022/09/20 02:17:20;;;;;;;3.70;1.98;;;;;;;;;;4969575;28;20441;-70
2022/09/20 02:19:57;;;;;;;2.97;1.92;;;;;;;;;;4968873;28;20090;-70
2022/09/20 02:22:48;;;;;;;4.60;2.13;;;;;;;;;;4951534;28;20503;-70
2022/09/20 02:25:42;;;;;;;2.63;1.48;;;;;;;;;;4951791;28;20044;-70
2022/09/20 02:28:40;;;;;;;2.90;1.70;;;;;;;;;;4968428;28;20506;-70
2022/09/20 02:31:30;;;;;;;2.10;1.55;;;;;;;;;;4945245;28;20360;-70
2022/09/20 02:34:14;;;;;;;2.95;1.55;;;;;;;;;;4968521;28;20448;-70
2022/09/20 02:37:08;;;;;;;3.40;1.83;;;;;;;;;;4950923;28;20383;-70
2022/09/20 02:39:35;;;;;;;2.95;1.63;;;;;;;;;;4968873;28;20387;-71
2022/09/20 02:42:24;;;;;;;5.00;1.80;;;;;;;;;;4950786;28;20112;-70
2022/09/20 02:44:58;;;;;;;;;;;;;;;;;;4951159;28;20391;-70
2022/09/20 02:47:37;;;;;;;2.67;1.65;;;;;;;;;;4968164;28;20352;-70
2022/09/20 02:50:14;;;;;;;2.88;1.67;;;;;;;;;;4934407;28;20344;-70
2022/09/20 02:52:43;;;;;;;2.05;1.48;;;;;;;;;;4950151;28;20489;-70
2022/09/20 02:55:22;;;;;;;1.48;1.30;;;;;;;;;;4950234;28;20439;-70
2022/09/20 02:57:58;;;;;;;3.25;1.80;;;;;;;;;;4951090;28;20164;-70
2022/09/20 03:00:27;;;;;;;2.80;1.40;;;;;;;;;;4950542;28;20502;-70
2022/09/20 03:02:56;;;;;;;2.72;1.40;;;;;;;;;;4950322;28;20368;-70
2022/09/20 03:05:43;;;;;;;3.38;1.15;;;;;;;;;;4968322;28;20455;-70
2022/09/20 03:08:19;;;;;;;3.40;1.60;;;;;;;;;;4967907;28;20325;-70
2022/09/20 03:10:50;;;;;;;6.30;1.83;;;;;;;;;;4950385;28;20455;-70
2022/09/20 03:13:40;;;;;;;2.45;1.70;;;;;;;;;;4950190;28;20501;-70
2022/09/20 03:16:44;;;;;;;2.35;1.70;;;;;;;;;;4968526;28;20057;-70
2022/09/20 03:19:58;;;;;;;2.53;1.50;;;;;;;;;;4945195;28;20460;-70
2022/09/20 03:22:35;;;;;;;2.40;1.30;;;;;;;;;;4958568;28;20475;-70
2022/09/20 03:25:18;;;;;;;4.07;1.55;;;;;;;;;;4969833;28;20497;-70
2022/09/20 03:28:00;;;;;;;5.45;1.70;;;;;;;;;;4967824;28;20459;-70
2022/09/20 03:30:51;;;;;;;2.25;1.50;;;;;;;;;;4950072;28;20417;-70
2022/09/20 03:33:28;;;;;;;2.45;1.50;;;;;;;;;;4967692;28;20557;-70
2022/09/20 03:36:07;;;;;;;3.92;1.33;;;;;;;;;;4951042;28;20456;-70
2022/09/20 03:39:26;;;;;;;1.80;1.35;;;;;;;;;;4967880;28;20468;-70
2022/09/20 03:42:01;;;;;;;3.15;1.70;;;;;;;;;;4926565;28;20461;-70
2022/09/20 03:44:54;;;;;;;1.83;1.30;;;;;;;;;;4970445;28;20100;-69
2022/09/20 03:47:25;;;;;;;2.25;1.35;;;;;;;;;;4971368;28;20428;-70
2022/09/20 03:50:16;;;;;;;3.15;1.55;;;;;;;;;;4972793;28;20431;-70
2022/09/20 03:52:52;;;;;;;2.95;1.63;;;;;;;;;;4970995;28;20057;-71
2022/09/20 03:55:49;;;;;;;2.53;1.60;;;;;;;;;;4954491;28;20531;-70
2022/09/20 03:58:33;;;;;;;4.38;1.20;;;;;;;;;;4957375;28;20124;-70
2022/09/20 04:01:15;;;;;;;1.80;1.08;;;;;;;;;;4971413;28;20383;-70
2022/09/20 04:03:56;;;;;;;3.83;1.23;;;;;;;;;;4971864;28;20400;-71
2022/09/20 04:06:40;;;;;;;1.90;1.42;;;;;;;;;;4953234;28;20447;-70
2022/09/20 04:09:27;;;;;;;4.05;1.38;;;;;;;;;;4953666;28;20455;-71
2022/09/20 04:11:58;;;;;;;1.42;1.10;;;;;;;;;;4971203;28;20440;-70
2022/09/20 04:14:42;;;;;;;2.70;1.30;;;;;;;;;;4953142;28;20039;-70
2022/09/20 04:17:30;;;;;;;1.90;1.20;;;;;;;;;;4953688;28;20451;-70
2022/09/20 04:20:02;;;;;;;2.25;1.42;;;;;;;;;;4953362;28;20521;-70
2022/09/20 04:22:28;;;;;;;1.40;1.15;;;;;;;;;;4953224;28;20451;-70
2022/09/20 04:25:14;;;;;;;2.92;1.45;;;;;;;;;;4953649;28;20116;-71
2022/09/20 04:27:51;;;;;;;2.10;1.25;;;;;;;;;;4970222;28;20034;-71
2022/09/20 04:30:19;;;;;;;6.07;1.50;;;;;;;;;;4953149;28;20080;-70
2022/09/20 04:32:56;;;;;;;2.70;1.57;;;;;;;;;;4952764;28;20087;-70
2022/09/20 04:38:25;;;;;;;4.35;2.22;;;;;;;;;;4971607;28;20068;-70
2022/09/20 04:41:19;;;;;;;15.43;5.97;;;;;;;;;;4970382;28;20332;-70
2022/09/20 04:44:16;;;;;;;13.60;6.30;;;;;;;;;;4970610;28;20439;-70
2022/09/20 04:47:00;;;;;;;10.85;4.18;;;;;;;;;;4953001;28;20336;-69
2022/09/20 04:49:59;;;;;;;6.90;2.92;;;;;;;;;;4953129;28;20482;-70
2022/09/20 04:53:02;;;;;;;5.55;2.90;;;;;;;;;;4970066;28;20053;-71
2022/09/20 04:55:51;;;;;;;5.00;2.85;;;;;;;;;;4970181;28;20108;-70
2022/09/20 04:58:45;;;;;;;4.05;1.83;;;;;;;;;;4970708;28;20093;-70
2022/09/20 05:01:15;;;;;;;3.83;1.98;;;;;;;;;;4970378;28;20369;-70
2022/09/20 05:04:18;;;;;;;2.22;1.50;;;;;;;;;;4970293;28;20429;-70
2022/09/20 05:07:02;;;;;;;5.70;1.83;;;;;;;;;;4970193;28;20503;-71
2022/09/20 05:09:52;;;;;;;3.33;1.80;;;;;;;;;;4952682;28;20427;-71
2022/09/20 05:12:33;;;;;;;2.75;1.70;;;;;;;;;;4971141;28;20441;-69
2022/09/20 05:15:07;;;;;;;2.92;1.60;;;;;;;;;;4970086;28;20495;-70
2022/09/20 05:17:47;;;;;;;3.08;1.92;;;;;;;;;;4968274;28;20029;-71
2022/09/20 05:20:34;;;;;;;3.60;1.88;;;;;;;;;;4952274;28;20463;-70
2022/09/20 05:23:18;;;;;;;3.92;2.03;;;;;;;;;;4970822;28;20493;-71
2022/09/20 05:25:51;;;;;;;3.15;1.95;;;;;;;;;;4969875;28;20427;-70
2022/09/20 05:28:50;;;;;;;4.07;1.60;;;;;;;;;;4952136;28;20444;-70
2022/09/20 05:31:39;;;;;;;3.80;2.05;;;;;;;;;;4938694;28;20115;-71
2022/09/20 05:34:26;;;;;;;3.42;2.10;;;;;;;;;;4936018;28;20357;-70
2022/09/20 05:37:03;;;;;;;4.75;2.30;;;;;;;;;;4951903;28;20025;-70
2022/09/20 05:39:41;;;;;;;3.65;1.90;;;;;;;;;;4951896;28;20464;-70
2022/09/20 05:42:15;;;;;;;4.15;1.88;;;;;;;;;;4951785;28;20335;-70
2022/09/20 05:44:49;;;;;;;4.38;1.75;;;;;;;;;;4951765;28;20052;-70
2022/09/20 05:47:34;;;;;;;4.32;1.90;;;;;;;;;;4971213;28;20440;-71
2022/09/20 05:50:04;;;;;;;3.67;1.90;;;;;;;;;;4952412;28;20422;-70
2022/09/20 05:52:40;;;;;;;4.00;1.90;;;;;;;;;;4951162;28;20518;-71
2022/09/20 05:55:27;;;;;;;2.67;1.75;;;;;;;;;;4969138;28;20460;-71
2022/09/20 05:58:17;;;;;;;3.45;2.20;;;;;;;;;;4951974;28;20475;-70
2022/09/20 06:01:12;;;;;;;3.35;2.00;;;;;;;;;;4969367;28;20394;-71
2022/09/20 06:03:53;;;;;;;4.25;2.08;;;;;;;;;;4943969;28;20403;-71
2022/09/20 06:06:21;;;;;;;3.13;1.75;;;;;;;;;;4951714;28;20456;-70
2022/09/20 06:09:19;;;;;;;2.45;1.80;;;;;;;;;;4969274;28;20482;-72
2022/09/20 06:12:14;;;;;;;3.38;1.90;;;;;;;;;;4969206;28;20021;-70
2022/09/20 06:14:39;;;;;;;5.15;1.60;;;;;;;;;;4968858;28;20378;-70
2022/09/20 06:17:23;;;;;;;3.13;1.92;;;;;;;;;;4969608;28;20333;-70
2022/09/20 06:20:20;;;;;;;4.03;2.00;;;;;;;;;;4969844;28;20436;-70
2022/09/20 06:22:50;;;;;;;4.40;1.90;;;;;;;;;;4970017;28;20452;-69
2022/09/20 06:25:30;;;;;;;2.97;1.80;;;;;;;;;;4951184;28;20340;-70
2022/09/20 06:28:11;;;;;;;3.35;1.80;;;;;;;;;;4951158;28;20322;-70
2022/09/20 06:30:40;;;;;;;2.00;1.50;;;;;;;;;;4951662;28;20329;-70
2022/09/20 06:33:05;;;;;;;;;;;;;;;;;;4969012;28;20563;-71
2022/09/20 06:35:44;;;;;;;6.00;1.93;;;;;;;;;;4969974;28;20351;-70
2022/09/20 06:41:29;;;;;;;2.20;1.60;;;;;;;;;;4966880;28;20423;-70
2022/09/20 06:43:58;;;;;;;3.45;1.75;;;;;;;;;;4968426;28;20048;-71
2022/09/20 06:46:26;;;;;;;2.63;1.60;;;;;;;;;;4968442;28;20509;-70
2022/09/20 06:48:51;;;;;;;3.60;1.75;;;;;;;;;;4968175;28;20124;-70
2022/09/20 06:51:16;;;;;;;3.22;1.60;;;;;;;;;;4968414;28;20025;-70
2022/09/20 06:53:42;;;;;;;2.90;1.65;;;;;;;;;;4950110;28;20455;-69
2022/09/20 06:56:35;;;;;;;4.47;1.88;;;;;;;;;;4968066;28;20456;-69
2022/09/20 06:59:01;;;;;;;3.60;1.55;;;;;;;;;;4965700;28;20065;-70
2022/09/20 07:01:27;;;;;;;2.92;1.80;;;;;;;;;;4969726;28;20499;-70
2022/09/20 07:03:52;;;;;;;1.85;1.58;;;;;;;;;;4968552;28;20578;-69
2022/09/20 07:06:18;;;;;;;3.20;1.75;;;;;;;;;;4968522;28;20455;-69
2022/09/20 07:08:46;;;;;;;2.47;1.30;;;;;;;;;;4968432;28;20455;-70
2022/09/20 07:11:15;;;;;;;2.75;1.50;;;;;;;;;;4968031;28;20112;-69
2022/09/20 07:13:44;;;;;;;2.45;1.48;;;;;;;;;;4950526;28;20492;-69
2022/09/20 07:16:12;;;;;;;2.40;1.77;;;;;;;;;;4967927;28;20448;-70
2022/09/20 07:18:40;;;;;;;2.22;1.33;;;;;;;;;;4935250;28;20341;-69
2022/09/20 07:21:06;;;;;;;1.95;1.48;;;;;;;;;;4967794;28;20030;-70
2022/09/20 07:23:31;;;;;;;5.07;1.73;;;;;;;;;;4949976;28;20461;-70
2022/09/20 07:25:58;;;;;;;2.53;1.50;;;;;;;;;;4967976;28;20437;-70
2022/09/20 07:28:24;;;;;;;3.20;1.77;;;;;;;;;;4967695;28;20091;-71
2022/09/20 07:30:50;;;;;;;3.78;1.75;;;;;;;;;;4967836;28;20437;-69
2022/09/20 07:33:20;;;;;;;3.92;1.60;;;;;;;;;;4968799;28;20463;-70
2022/09/20 07:35:46;;;;;;;2.13;1.77;;;;;;;;;;4950538;28;20344;-70
2022/09/20 07:38:12;;;;;;;2.60;1.50;;;;;;;;;;4968085;28;20437;-70
2022/09/20 07:40:37;;;;;;;3.97;2.08;;;;;;;;;;4967617;28;20348;-70
2022/09/20 07:43:03;;;;;;;4.50;2.63;;;;;;;;;;4950025;28;20444;-69
2022/09/20 07:45:29;;;;;;;4.72;2.05;;;;;;;;;;4949976;28;20107;-69
2022/09/20 07:47:57;;;;;;;2.60;1.75;;;;;;;;;;4949937;28;20483;-70
2022/09/20 07:50:23;;;;;;;1.88;1.30;;;;;;;;;;4967829;28;20423;-70
2022/09/20 07:52:48;;;;;;;1.52;1.30;;;;;;;;;;4949565;28;20440;-69
2022/09/20 07:55:14;;;;;;;2.42;1.20;;;;;;;;;;4966837;28;20511;-70
2022/09/20 07:57:39;;;;;;;3.83;1.23;;;;;;;;;;4967616;28;20449;-70
2022/09/20 08:00:06;;;;;;;2.25;1.45;;;;;;;;;;4967418;28;20460;-69
2022/09/20 08:02:32;;;;;;;2.10;1.30;;;;;;;;;;4933380;28;20448;-69
2022/09/20 08:04:57;;;;;;;2.72;1.85;;;;;;;;;;4949765;28;20464;-70
2022/09/20 08:07:23;;;;;;;1.90;1.25;;;;;;;;;;4967535;28;20339;-70
2022/09/20 08:09:49;;;;;;;2.08;1.50;;;;;;;;;;4967641;28;20356;-69
2022/09/20 08:12:14;;;;;;;2.40;1.30;;;;;;;;;;4967381;28;20880;-69
2022/09/20 08:14:40;;;;;;;2.50;1.52;;;;;;;;;;4950188;28;20464;-70
2022/09/20 08:17:05;;;;;;;2.40;1.50;;;;;;;;;;4967539;28;20448;-70
2022/09/20 08:19:30;;;;;;;3.22;1.58;;;;;;;;;;4950146;28;20519;-69
2022/09/20 08:21:56;;;;;;;3.70;1.52;;;;;;;;;;4967279;28;20387;-70
2022/09/20 08:24:21;;;;;;;3.78;1.52;;;;;;;;;;4949498;28;20356;-69
2022/09/20 08:26:47;;;;;;;2.65;1.48;;;;;;;;;;4965516;28;20503;-70
2022/09/20 08:29:14;;;;;;;2.85;1.70;;;;;;;;;;4967406;28;20365;-70
2022/09/20 08:31:41;;;;;;;2.28;1.50;;;;;;;;;;4971036;28;20344;-70
2022/09/20 08:34:09;;;;;;;2.70;1.10;;;;;;;;;;4953433;28;20543;-70
2022/09/20 08:36:39;;;;;;;2.72;1.48;;;;;;;;;;4953065;28;20034;-69
2022/09/20 08:39:04;;;;;;;5.25;1.65;;;;;;;;;;4970538;28;20409;-70
2022/09/20 08:41:33;;;;;;;2.20;1.42;;;;;;;;;;4970882;28;20416;-69
2022/09/20 08:44:06;;;;;;;2.22;1.48;;;;;;;;;;4970743;28;20448;-69
2022/09/20 08:46:34;;;;;;;4.78;1.48;;;;;;;;;;4952419;28;20037;-69
2022/09/20 08:49:03;;;;;;;2.50;1.75;;;;;;;;;;4952687;28;20452;-70
2022/09/20 08:51:32;;;;;;;1.95;1.60;;;;;;;;;;4970328;28;20502;-70
2022/09/20 08:53:58;;;;;;;3.00;1.83;;;;;;;;;;4952211;28;20392;-69
2022/09/20 08:56:26;;;;;;;3.67;1.90;;;;;;;;;;4952963;28;20376;-70
2022/09/20 08:58:52;;;;;;;3.28;1.30;;;;;;;;;;4970126;28;20437;-70
2022/09/20 09:01:23;;;;;;;2.13;1.50;;;;;;;;;;4952540;28;21118;-70
2022/09/20 09:04:10;;;;;;;2.50;1.30;;;;;;;;;;4936106;28;20140;-70
2022/09/20 09:06:36;;;;;;;4.07;1.65;;;;;;;;;;4952578;28;20120;-70
2022/09/20 09:09:01;;;;;;;2.13;1.35;;;;;;;;;;4952293;28;20462;-70
2022/09/20 09:11:27;;;;;;;2.70;1.55;;;;;;;;;;4953051;28;20451;-70
2022/09/20 09:13:55;;;;;;;2.53;1.73;;;;;;;;;;4969880;28;20441;-70
2022/09/20 09:16:25;;;;;;;4.20;1.60;;;;;;;;;;4969897;28;20462;-69
2022/09/20 09:18:51;;;;;;;1.77;1.23;;;;;;;;;;4953302;28;20372;-70
2022/09/20 09:21:28;;;;;;;2.28;1.50;;;;;;;;;;4952088;28;20420;-69
2022/09/20 09:24:25;;;;;;;2.70;1.50;;;;;;;;;;4951947;28;20448;-69
2022/09/20 09:27:05;;;;;;;3.00;1.60;;;;;;;;;;4952566;28;20371;-70
2022/09/20 09:29:30;;;;;;;1.90;1.60;;;;;;;;;;4952094;28;20479;-70
2022/09/20 09:31:55;;;;;;;4.85;1.58;;;;;;;;;;4951614;28;20440;-70
2022/09/20 09:34:24;;;;;;;1.73;1.40;;;;;;;;;;4951859;28;20582;-70
2022/09/20 09:36:49;;;;;;;2.30;1.20;;;;;;;;;;4969523;28;20091;-70
2022/09/20 09:39:22;;;;;;;1.95;1.35;;;;;;;;;;4951610;28;20034;-70
2022/09/20 09:41:47;;;;;;;2.42;1.10;;;;;;;;;;4952383;28;20428;-69
2022/09/20 09:44:31;;;;;;;1.13;1.00;;;;;;;;;;4969392;28;20456;-70
2022/09/20 09:46:57;;;;;;;3.03;1.92;;;;;;;;;;4969387;28;20419;-72
2022/09/20 09:49:27;;;;;;;1.98;1.42;;;;;;;;;;4951869;28;20395;-70
2022/09/20 09:52:01;;;;;;;2.30;1.35;;;;;;;;;;4951528;28;20566;-70
2022/09/20 09:54:38;;;;;;;1.90;1.30;;;;;;;;;;4968968;28;20390;-70
2022/09/20 09:57:20;;;;;;;2.92;1.35;;;;;;;;;;4951671;28;20427;-70
2022/09/20 09:59:48;;;;;;;1.88;1.42;;;;;;;;;;4970930;28;20425;-70
2022/09/20 10:02:23;;;;;;;2.03;1.60;;;;;;;;;;4967720;28;20456;-70
2022/09/20 10:05:21;;;;;;;1.45;1.20;;;;;;;;;;4971342;28;20449;-70
2022/09/20 10:08:14;;;;;;;4.10;1.45;;;;;;;;;;4946371;28;20483;-70
2022/09/20 10:11:01;;;;;;;3.15;1.23;;;;;;;;;;4951460;28;20386;-69
2022/09/20 10:13:53;;;;;;;2.22;1.20;;;;;;;;;;4970685;28;20384;-69
2022/09/20 10:16:50;;;;;;;2.10;1.23;;;;;;;;;;4966311;28;20471;-70
2022/09/20 10:19:25;;;;;;;2.85;1.35;;;;;;;;;;4968919;28;20029;-70
2022/09/20 10:22:00;;;;;;;1.80;1.30;;;;;;;;;;4951013;28;20057;-69
2022/09/20 10:24:37;;;;;;;1.92;1.33;;;;;;;;;;4969085;28;20527;-70
2022/09/20 10:27:14;;;;;;;1.30;1.10;;;;;;;;;;4969331;28;20355;-70
2022/09/20 10:30:01;;;;;;;1.50;1.23;;;;;;;;;;4950746;28;20553;-69
2022/09/20 10:32:34;;;;;;;3.00;1.40;;;;;;;;;;4968584;28;20439;-70
2022/09/20 10:35:14;;;;;;;2.35;1.20;;;;;;;;;;4969111;28;20442;-70
2022/09/20 10:37:44;;;;;;;2.53;1.23;;;;;;;;;;4968560;28;20376;-69
2022/09/20 10:43:25;;;;;;;2.85;1.15;;;;;;;;;;4968210;28;20403;-70
2022/09/20 10:46:13;;;;;;;3.15;2.00;;;;;;;;;;4968234;28;20479;-70
2022/09/20 10:48:50;;;;;;;2.72;1.58;;;;;;;;;;4931020;28;20424;-70
2022/09/20 10:51:33;;;;;;;2.08;1.33;;;;;;;;;;4951109;28;20023;-71
2022/09/20 10:54:14;;;;;;;2.15;1.30;;;;;;;;;;4967145;28;20053;-69
2022/09/20 10:56:48;;;;;;;2.85;1.27;;;;;;;;;;4967898;28;20493;-69
2022/09/20 10:59:22;;;;;;;3.22;1.38;;;;;;;;;;4968402;28;20313;-69
2022/09/20 11:02:11;;;;;;;2.78;1.00;;;;;;;;;;4970157;28;20069;-69
2022/09/20 11:04:52;;;;;;;1.88;1.27;;;;;;;;;;4950519;28;20437;-70
2022/09/20 11:07:42;;;;;;;2.83;1.40;;;;;;;;;;4968014;28;20073;-70
2022/09/20 11:10:14;;;;;;;4.40;1.40;;;;;;;;;;4958322;28;20380;-70
2022/09/20 11:12:45;;;;;;;2.05;1.30;;;;;;;;;;4966165;28;20082;-69
2022/09/20 11:15:24;;;;;;;1.90;1.15;;;;;;;;;;4950497;28;20340;-69
2022/09/20 11:18:05;;;;;;;3.15;1.70;;;;;;;;;;4950494;28;20452;-69
2022/09/20 11:20:36;;;;;;;2.08;1.23;;;;;;;;;;4969466;28;20095;-70
2022/09/20 11:23:11;;;;;;;2.30;1.10;;;;;;;;;;4950745;28;20368;-70
2022/09/20 11:25:46;;;;;;;1.70;1.13;;;;;;;;;;4934806;28;20029;-70
2022/09/20 11:28:32;;;;;;;1.42;0.95;;;;;;;;;;4950199;28;20034;-70
2022/09/20 11:31:03;;;;;;;1.52;0.90;;;;;;;;;;4951174;28;20448;-69
2022/09/20 11:33:35;;;;;;;1.25;0.85;;;;;;;;;;4949927;28;20353;-69
2022/09/20 11:36:03;;;;;;;1.48;1.05;;;;;;;;;;4965938;28;20372;-69
2022/09/20 11:38:36;;;;;;;1.25;1.00;;;;;;;;;;4967723;28;20337;-69
2022/09/20 11:41:21;;;;;;;2.42;1.13;;;;;;;;;;4949817;28;20391;-70
2022/09/20 11:43:47;;;;;;;3.38;1.10;;;;;;;;;;4950081;28;20436;-71
2022/09/20 11:46:20;;;;;;;1.20;0.90;;;;;;;;;;4950468;28;20501;-70
2022/09/20 11:48:54;;;;;;;1.83;0.80;;;;;;;;;;4969633;28;20429;-71
2022/09/20 11:52:02;;;;;;;2.75;0.80;;;;;;;;;;4968707;28;20463;-72
2022/09/20 11:54:54;;;;;;;2.38;1.33;;;;;;;;;;4947288;28;20463;-70
2022/09/20 11:57:20;;;;;;;2.22;0.93;;;;;;;;;;4968661;28;20372;-71
2022/09/20 11:59:53;;;;;;;1.45;0.93;;;;;;;;;;4950279;28;20570;-71
2022/09/20 12:02:23;;;;;;;1.50;1.08;;;;;;;;;;4967629;28;20456;-71
2022/09/20 12:04:52;;;;;;;1.35;1.00;;;;;;;;;;4952176;28;20099;-71
2022/09/20 12:07:17;;;;;;;1.42;1.17;;;;;;;;;;4971114;28;20044;-71
2022/09/20 12:09:44;;;;;;;1.80;1.00;;;;;;;;;;4971065;28;20029;-70
2022/09/20 12:12:40;;;;;;;2.70;0.90;;;;;;;;;;4953512;28;20141;-71
2022/09/20 12:15:21;;;;;;;2.22;0.90;;;;;;;;;;4954329;28;20341;-70
2022/09/20 12:17:46;;;;;;;2.78;0.85;;;;;;;;;;4953600;28;20107;-70
2022/09/20 12:20:34;;;;;;;2.83;1.20;;;;;;;;;;4970875;28;20037;-70
2022/09/20 12:23:39;;;;;;;2.25;0.98;;;;;;;;;;4971354;28;20471;-70
2022/09/20 12:26:08;;;;;;;1.35;0.90;;;;;;;;;;4970635;28;20354;-70
2022/09/20 12:28:39;;;;;;;2.42;1.10;;;;;;;;;;4970698;28;20026;-70
2022/09/20 12:31:30;;;;;;;1.40;1.08;;;;;;;;;;4953951;28;20184;-70
2022/09/20 12:34:01;;;;;;;1.50;1.00;;;;;;;;;;4970478;28;20390;-70
2022/09/20 12:36:34;;;;;;;3.97;1.15;;;;;;;;;;4970567;28;20433;-70
2022/09/20 12:39:26;;;;;;;2.20;1.10;;;;;;;;;;4953816;28;20446;-70
2022/09/20 12:42:00;;;;;;;1.58;1.00;;;;;;;;;;4952992;28;20102;-71
2022/09/20 12:44:48;;;;;;;1.60;0.82;;;;;;;;;;4969077;28;20504;-71
2022/09/20 12:47:13;;;;;;;2.85;1.20;;;;;;;;;;4970865;28;20436;-70
2022/09/20 12:55:29;;;;;;;1.67;1.00;;;;;;;;;;4937057;28;20563;-73
2022/09/20 12:58:13;;;;;;;3.70;1.20;;;;;;;;;;4952488;28;20368;-71
2022/09/20 13:00:39;;;;;;;1.65;0.90;;;;;;;;;;4951087;28;20343;-71
2022/09/20 13:03:13;;;;;;;1.65;1.00;;;;;;;;;;4951504;28;20452;-71
2022/09/20 13:05:46;;;;;;;1.20;1.02;;;;;;;;;;4950526;28;20437;-70
2022/09/20 13:08:19;;;;;;;2.15;1.15;;;;;;;;;;4950729;28;20404;-70
2022/09/20 13:10:54;;;;;;;1.33;0.73;;;;;;;;;;4933504;28;20507;-71
2022/09/20 13:13:43;;;;;;;1.20;0.95;;;;;;;;;;4932878;28;20387;-71
2022/09/20 13:16:27;;;;;;;2.20;1.30;;;;;;;;;;4928734;28;20353;-70
2022/09/20 13:19:06;;;;;;;1.88;1.05;;;;;;;;;;4933392;28;20622;-70
2022/09/20 13:21:49;;;;;;;1.83;0.80;;;;;;;;;;4916758;28;20420;-72
2022/09/20 13:24:17;;;;;;;1.65;1.15;;;;;;;;;;4932791;28;20468;-71
2022/09/20 13:26:44;;;;;;;1.55;1.10;;;;;;;;;;4932629;28;20339;-71
2022/09/20 13:29:22;;;;;;;1.20;0.90;;;;;;;;;;4932555;28;20436;-71
2022/09/20 13:31:47;;;;;;;2.25;1.42;;;;;;;;;;4932346;28;20018;-70
2022/09/20 13:34:18;;;;;;;0.90;0.80;;;;;;;;;;4932900;28;20029;-70
2022/09/20 13:36:44;;;;;;;1.25;0.90;;;;;;;;;;4950334;28;20494;-71
2022/09/20 13:39:22;;;;;;;3.03;1.30;;;;;;;;;;4950302;28;20069;-70
2022/09/20 13:41:49;;;;;;;1.63;0.90;;;;;;;;;;4916216;28;20044;-72
2022/09/20 13:44:18;;;;;;;1.55;1.00;;;;;;;;;;4932943;28;20101;-70
2022/09/20 13:46:43;;;;;;;;;;;;;;;;;;4932775;28;20037;-70
2022/09/20 13:49:11;;;;;;;3.50;0.98;;;;;;;;;;4949832;28;19910;-70
2022/09/20 13:51:37;;;;;;;1.20;0.93;;;;;;;;;;4949548;28;20453;-70
2022/09/20 13:54:28;;;;;;;1.25;0.95;;;;;;;;;;4961682;28;20456;-69
2022/09/20 13:57:05;;;;;;;1.35;0.70;;;;;;;;;;4952433;28;20399;-70
2022/09/20 13:59:40;;;;;;;1.08;0.85;;;;;;;;;;4951568;28;20463;-71
2022/09/20 14:02:19;;;;;;;1.92;1.30;;;;;;;;;;4951312;28;20318;-69
2022/09/20 14:04:45;;;;;;;2.72;1.00;;;;;;;;;;4952335;28;20401;-69
2022/09/20 14:07:13;;;;;;;1.05;0.70;;;;;;;;;;4951710;28;20455;-70
2022/09/20 14:09:38;;;;;;;1.67;0.77;;;;;;;;;;4951237;28;20510;-69
2022/09/20 14:12:05;;;;;;;3.97;0.90;;;;;;;;;;4968710;28;20396;-69
2022/09/20 14:14:33;;;;;;;2.88;1.05;;;;;;;;;;4968738;28;20391;-69
2022/09/20 14:17:00;;;;;;;1.42;0.75;;;;;;;;;;4951103;28;20433;-69
2022/09/20 14:19:30;;;;;;;2.70;1.00;;;;;;;;;;4968987;28;20029;-69
2022/09/20 14:21:58;;;;;;;1.30;0.90;;;;;;;;;;4951005;28;20456;-69
2022/09/20 14:24:28;;;;;;;1.05;0.80;;;;;;;;;;4950736;28;20507;-70
2022/09/20 14:27:03;;;;;;;1.25;0.98;;;;;;;;;;4951117;28;20436;-70
2022/09/20 14:29:41;;;;;;;1.80;0.98;;;;;;;;;;4950737;28;20356;-70
2022/09/20 14:32:16;;;;;;;2.42;1.40;;;;;;;;;;4950933;28;20506;-70
2022/09/20 14:34:43;;;;;;;2.35;1.17;;;;;;;;;;4968312;28;20364;-69
2022/09/20 14:37:13;;;;;;;1.80;1.10;;;;;;;;;;4950958;28;20472;-70
2022/09/20 14:39:49;;;;;;;2.83;1.25;;;;;;;;;;4968176;28;20404;-69
2022/09/20 14:42:25;;;;;;;1.73;0.88;;;;;;;;;;4935774;28;20330;-68
2022/09/20 14:44:51;;;;;;;2.75;0.80;;;;;;;;;;4968463;28;20510;-69
2022/09/20 14:47:25;;;;;;;2.17;1.25;;;;;;;;;;4968327;28;20583;-69
2022/09/20 14:49:51;;;;;;;1.42;0.80;;;;;;;;;;4968550;28;20451;-69
2022/09/20 14:52:22;;;;;;;2.60;1.20;;;;;;;;;;4968583;28;20415;-70
2022/09/20 14:54:58;;;;;;;1.33;0.70;;;;;;;;;;4967829;28;20368;-69
2022/09/20 14:57:26;;;;;;;1.13;0.77;;;;;;;;;;4950761;28;20045;-69
2022/09/20 14:59:58;;;;;;;1.50;0.90;;;;;;;;;;4968360;28;20451;-69
2022/09/20 15:02:24;;;;;;;1.02;0.85;;;;;;;;;;4950773;28;20444;-69
2022/09/20 15:04:55;;;;;;;2.28;1.02;;;;;;;;;;4950600;28;20029;-69
2022/09/20 15:07:20;;;;;;;1.33;0.90;;;;;;;;;;4968521;28;20322;-69
2022/09/20 15:09:47;;;;;;;1.50;0.80;;;;;;;;;;4950824;28;20376;-69
2022/09/20 15:12:15;;;;;;;3.25;1.08;;;;;;;;;;4968007;28;20325;-69
2022/09/20 15:14:41;;;;;;;1.27;1.08;;;;;;;;;;4969822;28;20474;-69
2022/09/20 15:17:09;;;;;;;2.05;1.10;;;;;;;;;;4970171;28;20400;-69
2022/09/20 15:19:34;;;;;;;1.83;1.20;;;;;;;;;;4950639;28;20029;-69
2022/09/20 15:21:59;;;;;;;3.22;1.55;;;;;;;;;;4968188;28;20105;-69
2022/09/20 15:24:25;;;;;;;2.85;1.48;;;;;;;;;;4966346;28;20462;-70
2022/09/20 15:26:51;;;;;;;4.65;1.85;;;;;;;;;;4967973;28;20436;-70
2022/09/20 15:29:17;;;;;;;6.07;2.55;;;;;;;;;;4968006;28;20393;-69
2022/09/20 15:31:44;;;;;;;5.38;2.20;;;;;;;;;;4968445;28;20375;-70
2022/09/20 15:34:11;;;;;;;5.88;2.20;;;;;;;;;;4950050;28;20064;-69
2022/09/20 15:36:36;;;;;;;3.75;1.80;;;;;;;;;;4967549;28;20348;-69
2022/09/20 15:39:03;;;;;;;6.13;2.20;;;;;;;;;;4970169;28;20356;-70
2022/09/20 15:41:31;;;;;;;6.22;2.20;;;;;;;;;;4971776;28;20436;-70
2022/09/20 15:43:56;;;;;;;7.13;2.47;;;;;;;;;;4973117;28;20448;-69
2022/09/20 15:46:25;;;;;;;6.00;2.67;;;;;;;;;;4972237;28;20444;-69
2022/09/20 15:48:50;;;;;;;6.30;2.63;;;;;;;;;;4971624;28;20344;-70